Time;durP1;ratioP1;P1;durP2;ratioP2;P2;SDS_P1;SDS_P2;PMS_P1;PMS_P2;Temp;Humidity;BMP_temperature;BMP_pressure;BME280_temperature;BME280_humidity;BME280_pressure;Samples;Min_cycle;Max_cycle;Signal;HPM_P1;HPM_P2
2022/05/04 00:01:02;;;;;;;5.35;4.13;;;10.60;99.90;;;;;;5116446;28;20252;-61
2022/05/04 00:03:28;;;;;;;5.65;4.30;;;10.50;99.90;;;;;;5116224;28;20173;-60
2022/05/04 00:05:54;;;;;;;5.20;4.10;;;10.50;99.90;;;;;;5116139;28;20630;-61
2022/05/04 00:08:19;;;;;;;5.82;4.15;;;10.50;99.90;;;;;;5116384;28;20188;-61
2022/05/04 00:10:45;;;;;;;6.82;4.50;;;10.40;99.90;;;;;;5116301;28;20630;-61
2022/05/04 00:13:12;;;;;;;5.75;3.88;;;10.40;99.90;;;;;;5116197;28;20217;-60
2022/05/04 00:15:37;;;;;;;7.82;3.63;;;10.40;99.90;;;;;;5116049;28;20573;-60
2022/05/04 00:18:03;;;;;;;5.35;4.20;;;10.30;99.90;;;;;;5114863;28;20187;-61
2022/05/04 00:20:29;;;;;;;5.50;3.90;;;10.30;99.90;;;;;;5114615;28;20534;-60
2022/05/04 00:22:54;;;;;;;5.43;3.75;;;10.20;99.90;;;;;;5116153;28;20206;-60
2022/05/04 00:25:20;;;;;;;5.78;3.72;;;10.10;99.90;;;;;;5116253;28;20209;-61
2022/05/04 00:27:46;;;;;;;6.40;4.30;;;10.20;99.90;;;;;;5115963;28;20169;-60
2022/05/04 00:30:12;;;;;;;6.53;4.15;;;10.10;99.90;;;;;;5115934;28;20170;-60
2022/05/04 00:32:37;;;;;;;5.47;3.60;;;10.10;99.90;;;;;;5114402;28;20274;-60
2022/05/04 00:35:04;;;;;;;5.55;4.05;;;10.00;99.90;;;;;;5114465;28;20200;-60
2022/05/04 00:37:29;;;;;;;6.65;3.92;;;10.00;99.90;;;;;;5115884;28;20181;-60
2022/05/04 00:39:55;;;;;;;6.43;4.40;;;9.90;99.90;;;;;;5115094;28;20181;-60
2022/05/04 00:42:21;;;;;;;4.38;3.72;;;9.80;99.90;;;;;;5115683;28;20211;-60
2022/05/04 00:44:51;;;;;;;5.20;4.15;;;9.80;99.90;;;;;;5115573;28;20170;-60
2022/05/04 00:47:17;;;;;;;5.43;4.15;;;9.80;99.90;;;;;;5115506;28;20215;-60
2022/05/04 00:49:49;;;;;;;6.13;4.10;;;9.80;99.90;;;;;;5115451;28;20235;-60
2022/05/04 00:52:16;;;;;;;4.97;4.03;;;9.80;99.90;;;;;;5115587;28;20189;-60
2022/05/04 00:54:45;;;;;;;6.07;4.05;;;9.80;99.90;;;;;;5115530;28;20170;-60
2022/05/04 00:57:14;;;;;;;5.93;4.32;;;9.90;99.90;;;;;;5115386;28;20646;-60
2022/05/04 00:59:41;;;;;;;6.88;4.43;;;10.00;99.90;;;;;;5115224;28;20222;-60
2022/05/04 01:02:06;;;;;;;7.18;4.13;;;10.00;99.90;;;;;;5115168;28;20268;-60
2022/05/04 01:04:32;;;;;;;6.47;4.28;;;10.00;99.90;;;;;;5115131;28;20627;-60
2022/05/04 01:06:58;;;;;;;7.75;5.10;;;10.10;99.90;;;;;;5115276;28;20176;-60
2022/05/04 01:09:23;;;;;;;8.32;4.82;;;10.10;99.90;;;;;;5115084;28;20200;-60
2022/05/04 01:11:49;;;;;;;7.25;4.90;;;10.00;99.90;;;;;;5113715;28;20676;-60
2022/05/04 01:14:16;;;;;;;6.22;4.25;;;10.00;99.90;;;;;;5113872;28;20208;-60
2022/05/04 01:16:45;;;;;;;7.80;4.90;;;10.00;99.90;;;;;;5114848;28;20177;-60
2022/05/04 01:19:11;;;;;;;7.13;4.75;;;9.90;99.90;;;;;;5115066;28;20173;-60
2022/05/04 01:21:37;;;;;;;5.38;4.57;;;9.90;99.90;;;;;;5114958;28;20170;-60
2022/05/04 01:24:04;;;;;;;7.15;4.60;;;9.80;99.90;;;;;;5113650;28;20177;-60
2022/05/04 01:26:30;;;;;;;6.65;4.28;;;9.70;99.90;;;;;;5096482;28;20181;-60
2022/05/04 01:28:56;;;;;;;6.30;4.60;;;9.60;99.90;;;;;;5114612;27;20538;-60
2022/05/04 01:31:22;;;;;;;7.50;5.22;;;9.50;99.90;;;;;;5113404;28;20173;-60
2022/05/04 01:33:48;;;;;;;6.70;4.75;;;9.40;99.90;;;;;;5113466;28;20229;-60
2022/05/04 01:36:14;;;;;;;6.20;4.35;;;9.40;99.90;;;;;;5114694;28;20500;-60
2022/05/04 01:38:39;;;;;;;6.55;4.63;;;9.50;99.90;;;;;;5114510;28;20180;-60
2022/05/04 01:42:02;;;;;;;6.85;4.65;;;9.50;99.90;;;;;;5113264;28;20173;-60
2022/05/04 01:43:50;;;;;;;8.98;4.95;;;9.50;99.90;;;;;;5113210;28;20197;-60
2022/05/04 01:46:16;;;;;;;8.23;5.10;;;9.60;99.90;;;;;;5114340;28;20169;-60
2022/05/04 01:48:43;;;;;;;8.30;5.18;;;9.60;99.90;;;;;;5113144;28;20180;-61
2022/05/04 01:51:09;;;;;;;7.53;4.53;;;9.50;99.90;;;;;;5114408;28;20169;-60
2022/05/04 01:53:35;;;;;;;7.20;5.07;;;9.50;99.90;;;;;;5114099;28;20638;-60
2022/05/04 01:56:06;;;;;;;8.60;5.32;;;9.50;99.90;;;;;;5114242;28;20180;-60
2022/05/04 01:58:31;;;;;;;6.50;4.88;;;9.60;99.90;;;;;;5114429;28;20184;-60
2022/05/04 02:00:58;;;;;;;5.32;4.07;;;9.70;99.90;;;;;;5114238;28;20260;-60
2022/05/04 02:03:24;;;;;;;6.70;4.97;;;9.70;99.90;;;;;;5114166;28;20196;-60
2022/05/04 02:05:50;;;;;;;5.45;4.00;;;9.80;99.90;;;;;;5112645;28;20279;-60
2022/05/04 02:08:16;;;;;;;6.80;5.00;;;9.80;99.90;;;;;;5114026;28;20252;-60
2022/05/04 02:10:42;;;;;;;8.32;5.22;;;9.80;99.90;;;;;;5112681;28;20173;-60
2022/05/04 02:13:07;;;;;;;6.95;4.88;;;9.70;99.90;;;;;;5114092;28;20212;-60
2022/05/04 02:15:33;;;;;;;8.25;5.07;;;9.50;99.90;;;;;;5114085;28;20531;-60
2022/05/04 02:17:59;;;;;;;8.77;5.80;;;9.50;99.90;;;;;;5112845;28;20197;-60
2022/05/04 02:20:24;;;;;;;7.00;5.22;;;9.50;99.90;;;;;;5112806;28;20204;-61
2022/05/04 02:22:50;;;;;;;7.43;5.30;;;9.40;99.90;;;;;;5113849;28;20511;-60
2022/05/04 02:25:15;;;;;;;6.40;4.82;;;9.50;99.90;;;;;;5113759;28;20210;-60
2022/05/04 02:27:41;;;;;;;8.20;5.10;;;9.60;99.90;;;;;;5112493;28;20200;-60
2022/05/04 02:30:07;;;;;;;7.45;4.95;;;9.60;99.90;;;;;;5113897;28;20180;-60
2022/05/04 02:32:33;;;;;;;7.32;5.10;;;9.60;99.90;;;;;;5112404;28;20229;-60
2022/05/04 02:37:54;;;;;;;7.68;4.93;;;9.60;99.90;;;;;;5113880;28;20187;-60
2022/05/04 02:40:20;;;;;;;6.43;4.60;;;9.60;99.90;;;;;;5113938;28;20526;-60
2022/05/04 02:42:46;;;;;;;6.30;4.75;;;9.50;99.90;;;;;;5112560;28;20180;-60
2022/05/04 02:45:12;;;;;;;7.43;5.00;;;9.50;99.90;;;;;;5113580;28;20181;-60
2022/05/04 02:47:39;;;;;;;7.82;5.15;;;9.50;99.90;;;;;;5113547;28;20174;-60
2022/05/04 02:50:05;;;;;;;7.20;4.63;;;9.50;99.90;;;;;;5113570;28;20171;-60
2022/05/04 02:52:31;;;;;;;8.35;5.20;;;9.50;99.90;;;;;;5113387;28;20606;-60
2022/05/04 02:54:57;;;;;;;7.15;4.88;;;9.40;99.90;;;;;;5113438;28;20265;-60
2022/05/04 02:57:22;;;;;;;6.30;4.38;;;9.30;99.90;;;;;;5113770;28;20202;-60
2022/05/04 02:59:48;;;;;;;8.35;5.03;;;9.30;99.90;;;;;;5113418;28;20196;-60
2022/05/04 03:02:29;;;;;;;7.75;4.80;;;9.30;99.90;;;;;;5113441;28;20259;-60
2022/05/04 03:05:00;;;;;;;6.63;4.82;;;9.20;99.90;;;;;;5116153;28;20193;-60
2022/05/04 03:07:26;;;;;;;6.85;5.00;;;9.20;99.90;;;;;;5117714;28;20260;-59
2022/05/04 03:09:53;;;;;;;6.13;4.30;;;9.20;99.90;;;;;;5116414;28;20172;-60
2022/05/04 03:12:19;;;;;;;7.55;4.82;;;9.00;99.90;;;;;;5117427;28;20185;-60
2022/05/04 03:14:45;;;;;;;8.65;5.65;;;8.90;99.90;;;;;;5116056;28;20181;-60
2022/05/04 03:17:12;;;;;;;9.25;5.13;;;8.80;99.90;;;;;;5117259;28;20180;-60
2022/05/04 03:19:38;;;;;;;7.63;5.50;;;8.80;99.90;;;;;;5117215;28;20169;-60
2022/05/04 03:22:04;;;;;;;7.28;5.00;;;8.70;99.90;;;;;;5117309;28;20177;-60
2022/05/04 03:24:29;;;;;;;7.20;4.97;;;8.70;99.90;;;;;;5117144;28;20173;-60
2022/05/04 03:26:55;;;;;;;7.68;5.10;;;8.70;99.90;;;;;;5117253;28;20626;-59
2022/05/04 03:29:21;;;;;;;7.35;4.90;;;8.70;99.90;;;;;;5117088;28;20529;-60
2022/05/04 03:31:46;;;;;;;7.07;4.75;;;8.60;99.90;;;;;;5116838;28;20172;-60
2022/05/04 03:34:12;;;;;;;6.85;5.20;;;8.50;99.90;;;;;;5116824;28;20185;-60
2022/05/04 03:36:38;;;;;;;6.45;4.72;;;8.40;99.90;;;;;;5116856;28;20180;-60
2022/05/04 03:39:04;;;;;;;7.03;5.07;;;8.40;99.90;;;;;;5116892;28;20657;-60
2022/05/04 03:41:31;;;;;;;8.73;4.90;;;8.30;99.90;;;;;;5116944;28;20177;-59
2022/05/04 03:43:57;;;;;;;8.90;5.07;;;8.30;99.90;;;;;;5115510;28;20176;-60
2022/05/04 03:46:25;;;;;;;7.07;4.82;;;8.30;99.90;;;;;;5115513;28;20177;-60
2022/05/04 03:48:58;;;;;;;8.10;5.45;;;8.30;99.90;;;;;;5116568;28;20248;-60
2022/05/04 03:51:24;;;;;;;8.55;5.10;;;8.30;99.90;;;;;;5116872;28;20177;-60
2022/05/04 03:53:52;;;;;;;6.63;4.60;;;8.30;99.90;;;;;;5116620;28;20201;-59
2022/05/04 03:56:19;;;;;;;6.05;4.32;;;8.20;99.90;;;;;;5116474;28;20169;-60
2022/05/04 03:58:46;;;;;;;5.57;4.38;;;8.20;99.90;;;;;;5116569;28;20591;-60
2022/05/04 04:01:13;;;;;;;6.85;5.10;;;8.10;99.90;;;;;;5116375;28;20177;-60
2022/05/04 04:03:39;;;;;;;6.65;4.75;;;8.10;99.90;;;;;;5116433;28;20181;-59
2022/05/04 04:06:05;;;;;;;10.63;5.28;;;8.10;99.90;;;;;;5115189;28;20189;-60
2022/05/04 04:08:31;;;;;;;7.55;5.10;;;8.10;99.90;;;;;;5115243;28;20591;-60
2022/05/04 04:10:58;;;;;;;6.40;4.93;;;8.00;99.90;;;;;;5116312;28;20193;-60
2022/05/04 04:13:24;;;;;;;8.02;5.47;;;8.00;99.90;;;;;;5114949;28;20205;-60
2022/05/04 04:15:51;;;;;;;7.20;5.43;;;8.00;99.90;;;;;;5114902;28;20546;-60
2022/05/04 04:18:22;;;;;;;8.13;5.30;;;7.90;99.90;;;;;;5116237;28;20310;-60
2022/05/04 04:23:33;;;;;;;6.53;5.03;;;7.80;99.90;;;;;;5116308;28;20184;-60
2022/05/04 04:25:59;;;;;;;7.43;4.80;;;7.90;99.90;;;;;;5116011;28;20248;-60
2022/05/04 04:28:25;;;;;;;6.82;4.75;;;7.90;99.90;;;;;;5115760;28;20205;-60
2022/05/04 04:30:51;;;;;;;8.55;5.32;;;8.00;99.90;;;;;;5115966;28;20196;-59
2022/05/04 04:33:17;;;;;;;7.05;4.72;;;8.00;99.90;;;;;;5115947;28;20201;-60
2022/05/04 04:35:43;;;;;;;6.93;4.63;;;7.80;99.90;;;;;;5114483;28;20173;-60
2022/05/04 04:38:08;;;;;;;6.85;5.03;;;7.80;99.90;;;;;;5115778;28;20607;-60
2022/05/04 04:40:34;;;;;;;6.43;4.75;;;7.70;99.90;;;;;;5115962;28;20553;-60
2022/05/04 04:43:03;;;;;;;6.72;4.80;;;7.70;99.90;;;;;;5115863;28;20579;-60
2022/05/04 04:45:30;;;;;;;7.65;5.05;;;7.70;99.90;;;;;;5097995;28;20173;-60
2022/05/04 04:47:56;;;;;;;5.57;4.47;;;7.70;99.90;;;;;;5114855;28;20218;-60
2022/05/04 04:50:23;;;;;;;8.48;4.15;;;7.80;99.90;;;;;;5114069;28;20269;-60
2022/05/04 04:52:48;;;;;;;6.78;4.95;;;7.80;99.90;;;;;;5115403;28;20291;-60
2022/05/04 04:55:14;;;;;;;7.43;4.97;;;7.80;99.90;;;;;;5115360;28;20264;-60
2022/05/04 04:57:40;;;;;;;6.68;4.65;;;7.90;99.90;;;;;;5114045;28;20516;-59
2022/05/04 05:00:06;;;;;;;7.50;5.38;;;7.90;99.90;;;;;;5115565;28;20776;-60
2022/05/04 05:02:35;;;;;;;6.68;4.95;;;7.90;99.90;;;;;;5115363;28;20176;-60
2022/05/04 05:05:02;;;;;;;7.95;5.15;;;8.00;99.90;;;;;;5114696;28;20200;-60
2022/05/04 05:07:28;;;;;;;8.57;5.57;;;8.10;99.90;;;;;;5115219;28;20180;-60
2022/05/04 05:09:53;;;;;;;8.82;5.22;;;8.10;99.90;;;;;;5113968;28;20173;-60
2022/05/04 05:12:21;;;;;;;7.15;5.50;;;8.10;99.90;;;;;;5113747;28;20566;-60
2022/05/04 05:17:32;;;;;;;8.27;5.15;;;8.10;99.90;;;;;;5115275;28;20260;-60
2022/05/04 05:19:57;;;;;;;8.95;5.47;;;8.20;99.90;;;;;;5114931;28;20180;-60
2022/05/04 05:22:23;;;;;;;8.00;5.25;;;8.30;99.90;;;;;;5114837;28;20173;-60
2022/05/04 05:24:49;;;;;;;8.40;5.72;;;8.40;99.90;;;;;;5114968;28;20527;-60
2022/05/04 05:27:15;;;;;;;7.30;4.95;;;8.60;99.90;;;;;;5114610;28;20177;-60
2022/05/04 05:29:41;;;;;;;7.75;5.07;;;8.70;99.90;;;;;;5113505;28;20169;-60
2022/05/04 05:32:07;;;;;;;7.82;5.00;;;8.70;99.90;;;;;;5114616;28;20243;-60
2022/05/04 05:34:34;;;;;;;6.22;4.85;;;8.80;99.90;;;;;;5115147;28;20185;-60
2022/05/04 05:37:02;;;;;;;7.85;5.25;;;9.00;99.90;;;;;;5114410;28;20188;-60
2022/05/04 05:39:28;;;;;;;7.95;5.35;;;9.20;99.90;;;;;;5114701;28;20280;-60
2022/05/04 05:41:54;;;;;;;7.57;5.22;;;9.20;99.90;;;;;;5113511;28;20633;-60
2022/05/04 05:44:20;;;;;;;8.23;5.30;;;9.40;99.90;;;;;;5114752;28;20180;-60
2022/05/04 05:46:46;;;;;;;7.28;5.47;;;9.50;99.90;;;;;;5114413;28;20615;-60
2022/05/04 05:49:12;;;;;;;7.88;5.28;;;9.70;99.90;;;;;;5113025;28;20177;-60
2022/05/04 05:51:37;;;;;;;8.73;5.35;;;9.80;99.90;;;;;;5114436;28;20252;-60
2022/05/04 05:54:03;;;;;;;8.00;5.13;;;10.00;99.90;;;;;;5112911;28;20253;-60
2022/05/04 05:56:29;;;;;;;8.43;5.32;;;10.00;99.90;;;;;;5114374;28;20516;-60
2022/05/04 05:58:54;;;;;;;8.70;5.32;;;10.20;99.90;;;;;;5114334;28;20173;-60
2022/05/04 06:01:20;;;;;;;7.40;5.28;;;10.30;99.90;;;;;;5114153;28;20177;-60
2022/05/04 06:03:46;;;;;;;8.75;5.72;;;10.40;99.90;;;;;;5112793;28;20176;-60
2022/05/04 06:06:12;;;;;;;8.63;5.40;;;10.50;99.90;;;;;;5114396;28;20199;-60
2022/05/04 06:08:38;;;;;;;7.60;4.88;;;10.60;99.90;;;;;;5112929;28;20169;-60
2022/05/04 06:11:05;;;;;;;7.03;4.85;;;10.80;99.90;;;;;;5114098;28;20205;-60
2022/05/04 06:13:31;;;;;;;7.22;5.10;;;10.80;99.90;;;;;;5112923;28;20263;-60
2022/05/04 06:15:56;;;;;;;6.60;4.65;;;10.80;99.90;;;;;;5113934;28;20587;-60
2022/05/04 06:18:22;;;;;;;7.28;4.78;;;10.90;99.90;;;;;;5112613;28;20268;-60
2022/05/04 06:20:48;;;;;;;7.07;4.70;;;11.20;99.90;;;;;;5113783;28;20216;-60
2022/05/04 06:23:13;;;;;;;5.90;3.88;;;11.30;99.90;;;;;;5113958;28;20181;-60
2022/05/04 06:25:41;;;;;;;7.32;5.03;;;11.30;99.90;;;;;;5113906;28;20209;-60
2022/05/04 06:28:06;;;;;;;4.95;3.92;;;11.40;99.90;;;;;;5112751;28;20169;-60
2022/05/04 06:36:00;;;;;;;6.75;4.35;;;11.70;99.90;;;;;;5114175;28;20191;-60
2022/05/04 06:38:27;;;;;;;6.13;4.25;;;11.70;99.90;;;;;;5113041;28;20177;-60
2022/05/04 06:40:53;;;;;;;7.90;3.85;;;11.80;99.90;;;;;;5113641;28;20181;-60
2022/05/04 06:43:19;;;;;;;6.53;4.25;;;11.80;99.90;;;;;;5113683;28;20250;-60
2022/05/04 06:45:45;;;;;;;4.35;3.58;;;11.90;99.90;;;;;;5113512;28;20630;-60
2022/05/04 06:48:10;;;;;;;6.70;3.45;;;12.00;99.90;;;;;;5113691;28;20181;-60
2022/05/04 06:50:37;;;;;;;4.80;3.53;;;12.10;99.90;;;;;;5113574;28;20177;-60
2022/05/04 06:53:03;;;;;;;4.25;3.50;;;12.30;99.90;;;;;;5112410;28;20201;-60
2022/05/04 06:55:29;;;;;;;4.55;3.20;;;12.40;99.90;;;;;;5112320;28;20189;-60
2022/05/04 06:57:54;;;;;;;4.95;3.60;;;12.40;99.90;;;;;;5113490;28;20165;-60
2022/05/04 07:00:20;;;;;;;4.72;3.10;;;12.50;99.90;;;;;;5113399;28;20570;-60
2022/05/04 07:02:46;;;;;;;5.15;3.30;;;12.50;99.90;;;;;;5112486;28;20264;-60
2022/05/04 07:05:12;;;;;;;4.78;3.50;;;12.60;99.90;;;;;;5112229;28;20618;-60
2022/05/04 07:07:37;;;;;;;6.72;3.75;;;12.70;99.90;;;;;;5113367;28;20635;-60
2022/05/04 07:10:03;;;;;;;3.97;3.17;;;12.90;99.90;;;;;;5113569;28;20252;-60
2022/05/04 07:12:29;;;;;;;5.47;3.80;;;13.00;99.90;;;;;;5113336;28;20212;-60
2022/05/04 07:14:56;;;;;;;5.72;3.90;;;13.30;99.90;;;;;;5113241;28;20630;-60
2022/05/04 07:17:25;;;;;;;4.90;3.70;;;13.00;99.90;;;;;;5113433;28;20205;-60
2022/05/04 07:19:52;;;;;;;5.28;3.72;;;13.10;99.90;;;;;;5113450;28;20226;-60
2022/05/04 07:22:17;;;;;;;5.60;3.45;;;13.30;99.90;;;;;;5112168;28;20197;-60
2022/05/04 07:24:43;;;;;;;5.57;3.25;;;13.20;99.90;;;;;;5113136;28;20178;-60
2022/05/04 07:27:09;;;;;;;5.35;3.70;;;12.90;99.90;;;;;;5113229;28;20662;-60
2022/05/04 07:29:34;;;;;;;6.10;3.88;;;13.20;99.90;;;;;;5113209;28;20182;-61
2022/05/04 07:32:01;;;;;;;5.47;3.53;;;13.60;99.90;;;;;;5113041;28;20653;-60
2022/05/04 07:34:27;;;;;;;4.20;3.47;;;13.10;99.90;;;;;;5113273;28;20593;-60
2022/05/04 07:36:53;;;;;;;4.88;3.20;;;13.20;99.90;;;;;;5113291;28;20201;-60
2022/05/04 07:42:21;;;;;;;4.70;3.38;;;13.70;99.90;;;;;;5113120;28;20215;-60
2022/05/04 07:44:56;;;;;;;5.63;3.42;;;14.10;99.90;;;;;;5113294;28;20169;-60
2022/05/04 07:47:21;;;;;;;8.05;3.70;;;13.70;99.90;;;;;;5113276;28;20179;-60
2022/05/04 07:49:47;;;;;;;5.57;3.20;;;13.90;99.90;;;;;;5115093;28;20256;-61
2022/05/04 07:52:13;;;;;;;6.20;3.65;;;14.00;99.90;;;;;;5116609;28;20631;-60
2022/05/04 07:54:38;;;;;;;4.97;3.70;;;13.90;99.90;;;;;;5116484;28;20186;-60
2022/05/04 07:57:04;;;;;;;6.43;4.57;;;13.90;99.90;;;;;;5116787;28;20169;-60
2022/05/04 07:59:30;;;;;;;7.20;4.18;;;13.70;99.90;;;;;;5116659;28;20211;-60
2022/05/04 08:04:39;;;;;;;6.30;4.20;;;14.00;99.90;;;;;;5116790;28;20216;-60
2022/05/04 08:07:05;;;;;;;5.85;4.00;;;14.10;99.90;;;;;;5116204;28;20634;-60
2022/05/04 08:09:34;;;;;;;5.80;4.35;;;14.40;99.90;;;;;;5116515;28;20180;-60
2022/05/04 08:12:00;;;;;;;5.88;4.38;;;14.40;99.90;;;;;;5116336;28;20204;-60
2022/05/04 08:14:26;;;;;;;8.10;4.57;;;14.40;99.90;;;;;;5116232;28;20173;-60
2022/05/04 08:16:52;;;;;;;7.43;4.57;;;14.40;99.90;;;;;;5116172;28;20176;-60
2022/05/04 08:19:17;;;;;;;5.60;4.13;;;14.70;99.90;;;;;;5116286;28;20256;-61
2022/05/04 08:21:43;;;;;;;8.10;4.15;;;14.80;99.90;;;;;;5115985;28;20196;-61
2022/05/04 08:24:09;;;;;;;6.07;4.20;;;14.80;99.90;;;;;;5116055;28;20173;-60
2022/05/04 08:26:34;;;;;;;5.47;4.28;;;14.90;99.90;;;;;;5116127;28;20252;-60
2022/05/04 08:29:00;;;;;;;6.50;4.40;;;15.20;99.90;;;;;;5116224;28;20265;-61
2022/05/04 08:31:27;;;;;;;6.65;4.20;;;15.30;99.90;;;;;;5115959;28;20256;-61
2022/05/04 08:33:54;;;;;;;5.82;3.85;;;15.40;99.90;;;;;;5115859;28;20216;-61
2022/05/04 08:36:19;;;;;;;6.07;4.07;;;15.70;99.90;;;;;;5114525;28;20538;-61
2022/05/04 08:38:45;;;;;;;9.23;4.85;;;15.60;99.90;;;;;;5115922;28;20180;-61
2022/05/04 08:41:11;;;;;;;7.03;4.22;;;15.60;99.90;;;;;;5115854;28;20176;-61
2022/05/04 08:43:39;;;;;;;7.38;4.47;;;15.40;99.90;;;;;;5115782;28;20179;-61
2022/05/04 08:46:05;;;;;;;7.45;4.38;;;15.50;99.90;;;;;;5115486;28;20656;-61
2022/05/04 08:48:32;;;;;;;6.65;4.75;;;15.80;99.90;;;;;;5115530;28;20178;-61
2022/05/04 08:51:04;;;;;;;6.22;4.78;;;16.10;99.90;;;;;;5115329;28;20180;-61
2022/05/04 08:53:30;;;;;;;7.15;4.50;;;16.50;99.90;;;;;;5115578;28;20209;-61
2022/05/04 08:55:56;;;;;;;7.38;4.78;;;16.50;99.90;;;;;;5115470;28;20177;-60
2022/05/04 08:58:22;;;;;;;7.18;4.63;;;16.40;99.90;;;;;;5115379;28;20293;-61
2022/05/04 09:00:47;;;;;;;7.45;4.88;;;16.00;99.90;;;;;;5114688;28;20175;-60
2022/05/04 09:03:13;;;;;;;6.97;4.53;;;15.80;99.90;;;;;;5115277;28;20181;-60
2022/05/04 09:05:41;;;;;;;6.05;4.55;;;15.80;99.90;;;;;;5115377;28;20223;-60
2022/05/04 09:08:07;;;;;;;7.22;4.68;;;16.20;99.90;;;;;;5115417;28;20244;-60
2022/05/04 09:10:38;;;;;;;6.95;4.70;;;16.30;99.90;;;;;;5115309;28;20174;-60
2022/05/04 09:13:04;;;;;;;7.35;4.95;;;16.40;99.90;;;;;;5115123;27;20185;-60
2022/05/04 09:15:32;;;;;;;5.55;4.90;;;16.50;99.90;;;;;;5114796;28;20685;-60
2022/05/04 09:18:16;;;;;;;7.18;4.82;;;16.40;99.90;;;;;;5114933;28;20173;-60
2022/05/04 09:20:48;;;;;;;6.20;4.40;;;16.40;99.90;;;;;;5115096;28;20173;-60
2022/05/04 09:23:19;;;;;;;8.02;5.43;;;16.70;99.90;;;;;;5115148;28;20212;-60
2022/05/04 09:25:48;;;;;;;6.85;4.70;;;16.90;99.90;;;;;;5114940;28;20305;-61
2022/05/04 09:28:15;;;;;;;8.23;5.13;;;17.10;99.90;;;;;;5114634;28;20173;-60
2022/05/04 09:30:48;;;;;;;6.45;4.53;;;17.20;99.90;;;;;;5114903;28;20192;-60
2022/05/04 09:33:22;;;;;;;6.47;4.63;;;17.10;99.90;;;;;;5115064;28;20236;-60
2022/05/04 09:35:49;;;;;;;7.20;4.82;;;17.20;99.90;;;;;;5114556;28;20188;-60
2022/05/04 09:46:40;;;;;;;8.50;5.22;;;17.60;99.90;;;;;;5113696;28;20211;-61
2022/05/04 09:49:09;;;;;;;8.20;5.13;;;17.50;99.90;;;;;;5113089;28;20165;-60
2022/05/04 09:51:36;;;;;;;6.40;4.70;;;17.60;99.90;;;;;;5114584;28;20178;-60
2022/05/04 09:54:17;;;;;;;6.57;4.40;;;17.70;99.90;;;;;;5114302;28;20223;-61
2022/05/04 09:56:53;;;;;;;7.20;5.30;;;17.90;99.90;;;;;;5114416;28;20255;-61
2022/05/04 09:59:21;;;;;;;8.13;5.10;;;17.90;99.00;;;;;;5114330;28;20167;-60
2022/05/04 10:01:48;;;;;;;7.47;5.25;;;18.30;99.60;;;;;;5114009;28;20177;-61
2022/05/04 10:04:14;;;;;;;8.25;5.18;;;18.40;99.10;;;;;;5114183;28;20193;-61
2022/05/04 10:06:40;;;;;;;8.63;5.93;;;18.00;97.30;;;;;;5114210;28;20218;-60
2022/05/04 10:09:07;;;;;;;7.65;4.97;;;18.20;99.20;;;;;;5114194;28;20176;-61
2022/05/04 10:11:34;;;;;;;7.30;5.00;;;18.10;97.40;;;;;;5113930;28;20177;-61
2022/05/04 10:14:08;;;;;;;7.13;5.10;;;18.00;97.00;;;;;;5111887;28;20201;-61
2022/05/04 10:16:40;;;;;;;7.32;5.20;;;17.80;97.40;;;;;;5114231;28;20173;-61
2022/05/04 10:19:10;;;;;;;7.50;4.82;;;17.70;96.70;;;;;;5114106;28;20242;-60
2022/05/04 10:21:37;;;;;;;9.73;4.88;;;17.90;98.90;;;;;;5113985;28;20169;-61
2022/05/04 10:24:07;;;;;;;7.50;4.95;;;18.20;98.30;;;;;;5113960;28;20215;-61
2022/05/04 10:26:39;;;;;;;7.43;5.10;;;18.50;98.60;;;;;;5113700;28;20553;-60
2022/05/04 10:32:27;;;;;;;9.27;5.00;;;18.80;97.20;;;;;;5113952;28;20238;-61
2022/05/04 10:35:32;;;;;;;7.38;4.72;;;18.70;96.00;;;;;;5113665;28;20718;-61
2022/05/04 10:37:58;;;;;;;6.60;4.70;;;18.70;95.90;;;;;;5113878;28;20173;-61
2022/05/04 10:40:34;;;;;;;6.15;4.30;;;18.50;96.60;;;;;;5113768;28;20538;-61
2022/05/04 10:43:03;;;;;;;7.00;4.20;;;18.50;97.10;;;;;;5113710;28;20179;-60
2022/05/04 10:45:30;;;;;;;8.02;5.25;;;18.40;97.00;;;;;;5113539;28;20207;-61
2022/05/04 10:48:23;;;;;;;7.63;4.45;;;18.60;97.60;;;;;;5113722;28;20182;-61
2022/05/04 10:51:03;;;;;;;6.43;4.20;;;19.00;97.60;;;;;;5109702;28;20177;-61
2022/05/04 10:53:29;;;;;;;4.95;3.72;;;19.30;96.20;;;;;;5113011;28;20200;-61
2022/05/04 10:56:16;;;;;;;4.30;3.38;;;19.10;96.30;;;;;;5112843;28;20661;-61
2022/05/04 10:58:41;;;;;;;3.97;3.10;;;19.10;96.40;;;;;;5112182;28;20714;-61
2022/05/04 11:01:34;;;;;;;5.50;4.20;;;19.30;96.30;;;;;;5112799;28;20248;-61
2022/05/04 11:04:14;;;;;;;6.78;4.40;;;19.30;96.80;;;;;;5112683;28;20203;-61
2022/05/04 11:06:48;;;;;;;6.95;4.30;;;19.50;96.20;;;;;;5112770;28;20685;-61
2022/05/04 11:09:24;;;;;;;5.57;4.10;;;19.50;94.30;;;;;;5112692;28;20176;-61
2022/05/04 11:11:56;;;;;;;5.65;3.80;;;19.30;93.60;;;;;;5112834;28;20169;-61
2022/05/04 11:14:22;;;;;;;6.03;4.15;;;19.30;95.20;;;;;;5112624;28;20201;-61
2022/05/04 11:16:52;;;;;;;5.40;3.72;;;19.40;95.30;;;;;;5112675;28;20177;-61
2022/05/04 11:19:19;;;;;;;4.13;3.00;;;19.20;94.80;;;;;;5112649;28;20169;-61
2022/05/04 11:21:45;;;;;;;6.43;3.60;;;19.20;95.00;;;;;;5112850;28;20526;-61
2022/05/04 11:24:13;;;;;;;5.88;3.90;;;18.70;95.40;;;;;;5113835;28;20177;-61
2022/05/04 11:26:42;;;;;;;4.90;3.50;;;19.00;95.50;;;;;;5116504;28;20176;-62
2022/05/04 11:29:16;;;;;;;4.55;3.28;;;18.80;93.50;;;;;;5116356;28;20169;-60
2022/05/04 11:31:54;;;;;;;5.65;3.33;;;18.50;93.90;;;;;;5116594;28;20626;-61
2022/05/04 11:34:25;;;;;;;4.07;3.00;;;18.30;95.60;;;;;;5116471;28;20224;-61
2022/05/04 11:36:52;;;;;;;3.88;2.38;;;18.40;95.70;;;;;;5116492;28;20180;-61
2022/05/04 11:39:24;;;;;;;4.93;2.95;;;18.80;95.70;;;;;;5116333;28;20170;-61
2022/05/04 11:41:52;;;;;;;4.78;2.65;;;19.10;95.50;;;;;;5116168;28;20169;-61
2022/05/04 11:44:21;;;;;;;5.15;3.15;;;19.30;96.00;;;;;;5116392;28;20173;-61
2022/05/04 11:46:50;;;;;;;5.35;2.95;;;19.50;95.50;;;;;;5116331;28;20169;-61
2022/05/04 11:49:17;;;;;;;4.20;3.10;;;19.80;94.20;;;;;;5116213;28;20256;-61
2022/05/04 11:51:43;;;;;;;5.07;3.22;;;19.30;92.40;;;;;;5116137;28;20299;-61
2022/05/04 11:54:09;;;;;;;3.58;2.63;;;19.00;93.60;;;;;;5115911;28;20291;-61
2022/05/04 11:56:35;;;;;;;2.67;2.20;;;18.90;94.40;;;;;;5116174;28;20188;-61
2022/05/04 11:59:02;;;;;;;4.18;2.50;;;18.60;93.30;;;;;;5116041;28;20182;-61
2022/05/04 12:01:28;;;;;;;2.60;1.92;;;19.10;94.90;;;;;;5116092;28;20181;-61
2022/05/04 12:03:55;;;;;;;1.45;1.33;;;19.30;94.80;;;;;;5115657;28;20583;-61
2022/05/04 12:06:21;;;;;;;5.30;2.60;;;19.70;94.50;;;;;;5115910;28;20264;-61
2022/05/04 12:08:48;;;;;;;3.05;2.10;;;20.10;93.40;;;;;;5115670;28;20177;-61
2022/05/04 12:11:16;;;;;;;2.10;1.80;;;19.90;93.40;;;;;;5115932;28;20178;-61
2022/05/04 12:13:42;;;;;;;3.65;2.58;;;19.60;94.20;;;;;;5115705;28;20209;-61
2022/05/04 12:16:10;;;;;;;3.17;2.28;;;19.60;93.90;;;;;;5115744;28;20174;-61
2022/05/04 12:18:37;;;;;;;4.43;2.42;;;19.20;93.20;;;;;;5115639;28;20173;-61
2022/05/04 12:21:09;;;;;;;2.38;2.03;;;18.90;95.80;;;;;;5115452;28;20173;-61
2022/05/04 12:23:39;;;;;;;3.85;2.78;;;19.00;94.90;;;;;;5114256;28;20257;-61
2022/05/04 12:26:06;;;;;;;4.10;2.65;;;19.10;95.30;;;;;;5114055;28;20260;-61
2022/05/04 12:28:33;;;;;;;3.40;2.47;;;19.20;94.10;;;;;;5115369;28;20186;-61
2022/05/04 12:33:44;;;;;;;4.20;2.90;;;19.60;93.50;;;;;;5115068;28;20697;-61
2022/05/04 12:36:12;;;;;;;3.85;3.00;;;19.70;94.00;;;;;;5113088;28;20182;-61
2022/05/04 12:38:46;;;;;;;4.18;3.25;;;19.80;95.20;;;;;;5115016;28;20178;-61
2022/05/04 12:41:12;;;;;;;5.20;3.42;;;19.90;95.50;;;;;;5115305;28;20213;-61
2022/05/04 12:43:38;;;;;;;6.60;3.83;;;19.80;94.20;;;;;;5115110;28;20180;-61
2022/05/04 12:46:09;;;;;;;4.75;3.42;;;19.40;93.20;;;;;;5114906;28;20181;-61
2022/05/04 12:48:36;;;;;;;5.60;3.35;;;19.10;94.50;;;;;;5115113;28;20618;-61
2022/05/04 12:51:04;;;;;;;4.85;3.47;;;19.20;95.30;;;;;;5115027;28;20169;-61
2022/05/04 12:53:29;;;;;;;4.95;3.03;;;19.40;94.80;;;;;;5115099;28;20285;-62
2022/05/04 12:58:40;;;;;;;5.05;3.58;;;20.00;95.20;;;;;;5115025;28;20177;-61
2022/05/04 13:01:07;;;;;;;6.20;4.10;;;20.00;95.20;;;;;;5114892;28;20165;-61
2022/05/04 13:03:33;;;;;;;5.95;3.55;;;20.00;94.40;;;;;;5114639;28;20173;-61
2022/05/04 13:06:00;;;;;;;5.50;4.22;;;19.90;95.30;;;;;;5114832;28;20558;-61
2022/05/04 13:08:26;;;;;;;5.25;3.25;;;19.50;94.40;;;;;;5114591;28;20173;-61
2022/05/04 13:10:52;;;;;;;5.43;3.80;;;19.30;95.80;;;;;;5114601;28;20605;-61
2022/05/04 13:13:19;;;;;;;6.25;4.32;;;19.50;96.60;;;;;;5114207;28;20236;-61
2022/05/04 13:15:47;;;;;;;7.72;4.68;;;19.40;95.70;;;;;;5114582;28;20177;-61
2022/05/04 13:18:14;;;;;;;7.68;4.55;;;19.70;96.20;;;;;;5114450;28;20262;-61
2022/05/04 13:20:40;;;;;;;6.75;4.22;;;19.60;95.70;;;;;;5114375;28;20177;-61
2022/05/04 13:23:07;;;;;;;6.00;4.50;;;19.50;96.10;;;;;;5114257;28;20174;-61
2022/05/04 13:25:33;;;;;;;6.80;4.72;;;19.10;95.10;;;;;;5114298;28;20272;-61
2022/05/04 13:27:59;;;;;;;6.03;4.22;;;18.70;95.60;;;;;;5114087;28;20169;-61